Little Rock, AR

3:47 PM CDT on June 23, 2017 (GMT -0500)
South Main | | Change Station
Active Advisory: Severe Thunderstorm Watch

Elev 0 ft 34.73 °N, 92.27 °W | Updated 9 seconds ago

Overcast
Overcast
94.3 °F
Feels Like 115 °F
N
6.0
Wind Variable Wind from SW

Today
High -- | Low -- °F
--% Chance of Precip.
Yesterday
High -- | Low -- °F
Precip. -- in
Pressure 29.79 in
Visibility 10.0 miles
Clouds Mostly Cloudy 3000 ft
Mostly Cloudy 15000 ft
Overcast 25000 ft
Heat Index 115 °F
Dew Point 80 °F
Humidity 65%
Rainfall 0.20 in
Snow Depth Not available.
5:56 AM 8:26 PM
Waning Crescent, 0% visible
METAR KLIT 231953Z 23009KT 10SM BKN030 BKN150 OVC250 31/25 A2979 RMK AO2 SLP086 T03110250
Pressure 29.79 in
Visibility 10.0 miles
Clouds Mostly Cloudy 3000 ft
Mostly Cloudy 15000 ft
Overcast 25000 ft
Heat Index 115 °F
Dew Point 80 °F
Humidity 65%
Rainfall 0.20 in
Snow Depth Not available.
5:56 AM 8:26 PM
Waning Crescent, 0% visible
METAR KLIT 231953Z 23009KT 10SM BKN030 BKN150 OVC250 31/25 A2979 RMK AO2 SLP086 T03110250

Get Your Daily Forecast Email!

Thanks for signing up!

Be on the lookout for a verification email in your inbox.

You'll start receiving severe weather alerts in your inbox..

×

10-Day Weather Forecast

Almanac

Astronomy

Jun. 23, 2017 Rise Set
Actual Time
Civil Twilight
Nautical Twilight
Astronomical Twilight
Moon
Length of Visible Light
Length of Day
Tomorrow will be .
, % of the Moon is Illuminated

Today's Extremes

State Highs State Lows

Community

WunderPhotos

Category 6

Welcome to Category 6. This is the collective home for Weather Underground's featured writeups by Dr. Jeff Masters (right), Bob Henson (left), Chris Burt, and other regular contributors.

Nearby

Air Quality

  Air Quality AQ Index Pollutant
Not available.

Snow Depth

Station Depth Elevation

Earthquake Activity

City Distance Mag. Time & Date
Minimum magnitude displayed is 2.5.

Coastal Water Temperatures

Place Temperature

Stations

Nearby Weather Stations

Station Location Temp. Windchill Dew Point Humidity Wind Precip. Elev Updated Type
                   

Watches & Warnings

Severe Thunderstorm Watch
Issued: 3:43 PM CDT Jun. 23, 2017 – National Weather Service

Severe Thunderstorm Watch 367 remains in effect until 900 PM CDT
for the following locations


AR
. Arkansas counties included are

Arkansas Baxter Boone
Clay Cleburne Conway
Craighead Crittenden cross
Faulkner Fulton Garland
Grant Greene Hot Spring
Independence Izard Jackson
Jefferson Johnson Lawrence
Lee Logan Lonoke
Marion Mississippi Monroe
Newton Perry Phillips
Poinsett Pope prairie
Pulaski Randolph St. Francis
Saline Searcy sharp
stone Van Buren white
Woodruff Yell